createdAt,value
2023-05-19T00:02:09.340Z,102794.22
2023-05-19T00:04:37.091Z,102793.22
2023-05-19T00:07:05.573Z,102790.50
2023-05-19T00:09:34.556Z,102794.81
2023-05-19T00:12:01.162Z,102786.75
2023-05-19T00:14:29.058Z,102780.50
2023-05-19T00:16:58.519Z,102780.44
2023-05-19T00:19:25.573Z,102781.22
2023-05-19T00:21:52.147Z,102782.78
2023-05-19T00:24:18.773Z,102780.00
2023-05-19T00:26:45.373Z,102761.13
2023-05-19T00:29:11.880Z,102770.88
2023-05-19T00:31:38.477Z,102773.53
2023-05-19T00:34:05.077Z,102773.44
2023-05-19T00:36:31.790Z,102777.72
2023-05-19T00:38:58.241Z,102780.19
2023-05-19T00:41:24.995Z,102774.03
2023-05-19T00:43:51.647Z,102772.13
2023-05-19T00:46:19.368Z,102771.22
2023-05-19T00:48:45.980Z,102776.41
2023-05-19T00:51:16.927Z,102763.06
2023-05-19T00:53:50.356Z,102772.63
2023-05-19T00:56:18.234Z,102770.88
2023-05-19T00:58:45.502Z,102768.16
2023-05-19T01:01:16.685Z,102765.41
2023-05-19T01:03:44.282Z,102767.09
2023-05-19T01:06:12.349Z,102775.81
2023-05-19T01:08:39.402Z,102776.69
2023-05-19T01:11:07.945Z,102759.81
2023-05-19T01:13:35.698Z,102769.56
2023-05-19T01:16:37.462Z,102762.50
2023-05-19T01:19:24.439Z,102765.81
2023-05-19T01:22:06.916Z,102764.81
2023-05-19T01:24:58.903Z,102759.38
2023-05-19T01:27:47.017Z,102758.31
2023-05-19T01:30:29.368Z,102760.97
2023-05-19T01:33:01.648Z,102744.19
2023-05-19T01:35:29.224Z,102752.97
2023-05-19T01:37:58.532Z,102734.25
2023-05-19T01:40:26.538Z,102743.06
2023-05-19T01:42:57.566Z,102745.66
2023-05-19T01:45:25.698Z,102742.94
2023-05-19T01:47:55.503Z,102742.94
2023-05-19T01:50:22.541Z,102740.28
2023-05-19T01:52:49.489Z,102740.28
2023-05-19T01:55:16.079Z,102728.72
2023-05-19T01:58:06.819Z,102736.63
2023-05-19T02:01:03.271Z,102737.47
2023-05-19T02:03:45.994Z,102740.78
2023-05-19T02:06:22.927Z,102734.56
2023-05-19T02:08:58.636Z,102738.88
2023-05-19T02:11:46.488Z,102736.22
2023-05-19T02:14:23.872Z,102733.34
2023-05-19T02:16:50.830Z,102734.97
2023-05-19T02:19:37.227Z,102737.50
2023-05-19T02:22:03.862Z,102731.28
2023-05-19T02:24:30.401Z,102731.22
2023-05-19T02:26:56.919Z,102725.13
2023-05-19T02:29:23.549Z,102721.53
2023-05-19T02:31:50.229Z,102726.78
2023-05-19T02:34:21.023Z,102726.75
2023-05-19T02:36:49.777Z,102723.16
2023-05-19T02:39:16.508Z,102716.06
2023-05-19T02:41:42.944Z,102715.16
2023-05-19T02:44:09.474Z,102715.00
2023-05-19T02:46:36.262Z,102715.69
2023-05-19T02:49:02.926Z,102719.09
2023-05-19T02:51:29.442Z,102723.47
2023-05-19T02:53:56.036Z,102713.81
2023-05-19T02:56:26.419Z,102713.81
2023-05-19T02:58:53.067Z,102724.22
2023-05-19T03:01:21.334Z,102706.59
2023-05-19T03:03:47.945Z,102710.13
2023-05-19T03:06:15.663Z,102705.75
2023-05-19T03:08:42.498Z,102708.31
2023-05-19T03:11:09.175Z,102698.56
2023-05-19T03:13:35.738Z,102696.75
2023-05-19T03:16:03.421Z,102684.13
2023-05-19T03:18:29.914Z,102703.78
2023-05-19T03:20:56.579Z,102702.81
2023-05-19T03:23:23.217Z,102701.88
2023-05-19T03:25:49.736Z,102707.97
2023-05-19T03:28:17.160Z,102694.84
2023-05-19T03:30:43.655Z,102702.72
2023-05-19T03:33:10.308Z,102700.94
2023-05-19T03:35:36.956Z,102704.47
2023-05-19T03:38:03.491Z,102689.47
2023-05-19T03:40:37.222Z,102691.22
2023-05-19T03:43:03.769Z,102688.50
2023-05-19T03:45:30.362Z,102690.13
2023-05-19T03:47:56.971Z,102692.66
2023-05-19T03:50:23.475Z,102696.16
2023-05-19T03:52:50.016Z,102692.56
2023-05-19T03:55:16.740Z,102697.91
2023-05-19T03:57:46.810Z,102686.47
2023-05-19T04:00:13.758Z,102691.78
2023-05-19T04:02:45.785Z,102691.72
2023-05-19T04:05:12.259Z,102692.56
2023-05-19T04:07:38.828Z,102689.88
2023-05-19T04:10:06.066Z,102690.03
2023-05-19T04:12:33.055Z,102698.78
2023-05-19T04:14:59.775Z,102695.28
2023-05-19T04:17:26.688Z,102693.53
2023-05-19T04:19:53.837Z,102693.66
2023-05-19T04:22:20.977Z,102693.53
2023-05-19T04:24:51.013Z,102699.88
2023-05-19T04:27:18.155Z,102699.91
2023-05-19T04:29:46.052Z,102707.91
2023-05-19T04:32:17.654Z,102707.00
2023-05-19T04:34:47.265Z,102703.50
2023-05-19T04:37:16.570Z,102707.13
2023-05-19T04:39:45.117Z,102704.56
2023-05-19T04:42:11.807Z,102704.78
2023-05-19T04:44:40.214Z,102710.94
2023-05-19T04:47:10.538Z,102691.50
2023-05-19T04:49:39.828Z,102700.56
2023-05-19T04:52:10.361Z,102704.00
2023-05-19T04:54:37.897Z,102704.19
2023-05-19T04:57:04.815Z,102708.59
2023-05-19T04:59:31.476Z,102708.78
2023-05-19T05:01:58.119Z,102713.31
2023-05-19T05:04:25.213Z,102710.06
2023-05-19T05:06:51.901Z,102711.19
2023-05-19T05:09:21.288Z,102714.09
2023-05-19T05:11:51.738Z,102714.41
2023-05-19T05:14:19.268Z,102718.06
2023-05-19T05:16:46.464Z,102719.38
2023-05-19T05:19:13.417Z,102715.44
2023-05-19T05:21:41.608Z,102717.44
2023-05-19T05:24:09.282Z,102716.75
2023-05-19T05:26:36.034Z,102721.50
2023-05-19T05:29:03.727Z,102718.38
2023-05-19T05:31:30.218Z,102722.94
2023-05-19T05:33:56.804Z,102729.41
2023-05-19T05:36:23.253Z,102730.59
2023-05-19T05:38:52.663Z,102726.63
2023-05-19T05:41:20.251Z,102737.66
2023-05-19T05:43:46.740Z,102730.97
2023-05-19T05:46:20.759Z,102733.22
2023-05-19T05:48:47.475Z,102724.22
2023-05-19T05:51:14.451Z,102721.72
2023-05-19T05:53:44.761Z,102723.53
2023-05-19T05:56:11.979Z,102719.78
2023-05-19T05:58:40.577Z,102725.88
2023-05-19T06:01:11.049Z,102721.13
2023-05-19T06:03:41.994Z,102722.53
2023-05-19T06:06:10.637Z,102717.06
2023-05-19T06:08:37.166Z,102715.19
2023-05-19T06:11:08.984Z,102720.22
2023-05-19T06:13:36.222Z,102722.78
2023-05-19T06:16:06.231Z,102718.94
2023-05-19T06:18:32.857Z,102714.13
2023-05-19T06:20:59.392Z,102716.19
2023-05-19T06:23:26.982Z,102711.16
2023-05-19T06:25:53.454Z,102716.81
2023-05-19T06:28:19.905Z,102708.13
2023-05-19T06:30:46.418Z,102710.06
2023-05-19T06:33:13.093Z,102705.66
2023-05-19T06:35:39.578Z,102707.50
2023-05-19T06:38:06.029Z,102707.44
2023-05-19T06:40:32.794Z,102702.06
2023-05-19T06:42:59.357Z,102702.03
2023-05-19T06:45:26.012Z,102702.91
2023-05-19T06:47:52.828Z,102706.50
2023-05-19T06:50:19.304Z,102703.91
2023-05-19T06:52:47.093Z,102704.81
2023-05-19T06:55:13.538Z,102710.16
2023-05-19T06:57:40.047Z,102718.13
2023-05-19T07:00:10.297Z,102714.69
2023-05-19T07:02:36.883Z,102714.72
2023-05-19T07:05:03.931Z,102706.84
2023-05-19T07:07:30.408Z,102706.84
2023-05-19T07:09:57.032Z,102710.47
2023-05-19T07:12:23.458Z,102708.69
2023-05-19T07:14:49.893Z,102707.84
2023-05-19T07:17:16.751Z,102709.63
2023-05-19T07:19:43.233Z,102713.22
2023-05-19T07:22:09.735Z,102710.53
2023-05-19T07:24:39.130Z,102706.97
2023-05-19T07:27:09.775Z,102708.72
2023-05-19T07:29:36.618Z,102709.63
2023-05-19T07:32:12.760Z,102716.75
2023-05-19T07:34:40.539Z,102705.25
2023-05-19T07:37:09.622Z,102707.03
2023-05-19T07:39:36.432Z,102708.78
2023-05-19T07:42:03.210Z,102708.78
2023-05-19T07:44:31.373Z,102703.47
2023-05-19T07:46:57.911Z,102703.47
2023-05-19T07:49:24.446Z,102702.56
2023-05-19T07:51:50.935Z,102701.69
2023-05-19T07:54:17.485Z,102699.97
2023-05-19T07:56:53.104Z,102700.91
2023-05-19T07:59:19.610Z,102703.56
2023-05-19T08:01:46.239Z,102696.41
2023-05-19T08:04:13.444Z,102691.00
2023-05-19T08:06:40.182Z,102688.19
2023-05-19T08:09:07.770Z,102687.16
2023-05-19T08:11:34.375Z,102689.66
2023-05-19T08:14:00.959Z,102690.38
2023-05-19T08:16:27.696Z,102688.47
2023-05-19T08:18:56.502Z,102679.59
2023-05-19T08:21:23.065Z,102673.34
2023-05-19T08:23:49.572Z,102683.19
2023-05-19T08:26:16.335Z,102681.38
2023-05-19T08:28:44.153Z,102677.72
2023-05-19T08:31:10.876Z,102672.34
2023-05-19T08:33:37.414Z,102679.25
2023-05-19T08:36:04.437Z,102672.03
2023-05-19T08:38:33.592Z,102668.44
2023-05-19T08:41:00.055Z,102662.13
2023-05-19T08:43:26.537Z,102669.28
2023-05-19T08:45:54.160Z,102667.59
2023-05-19T08:48:22.184Z,102662.16
2023-05-19T08:51:14.483Z,102653.16
2023-05-19T08:53:45.897Z,102648.59
2023-05-19T08:56:16.544Z,102651.09
2023-05-19T08:58:44.754Z,102648.31
2023-05-19T09:01:17.617Z,102637.38
2023-05-19T09:03:49.730Z,102635.28
2023-05-19T09:06:16.992Z,102640.38
2023-05-19T09:08:44.263Z,102643.63
2023-05-19T09:11:11.874Z,102645.13
2023-05-19T09:13:39.122Z,102637.78
2023-05-19T09:16:06.290Z,102637.34
2023-05-19T09:18:32.856Z,102628.09
2023-05-19T09:21:07.519Z,102635.69
2023-05-19T09:23:34.180Z,102628.41
2023-05-19T09:26:09.889Z,102638.75
2023-05-19T09:28:38.266Z,102642.75
2023-05-19T09:31:09.748Z,102640.19
2023-05-19T09:33:36.880Z,102639.44
2023-05-19T09:36:06.189Z,102631.47
2023-05-19T09:38:33.032Z,102638.63
2023-05-19T09:41:01.052Z,102634.03
2023-05-19T09:43:29.276Z,102634.75
2023-05-19T09:46:16.113Z,102640.91
2023-05-19T09:48:45.900Z,102633.66
2023-05-19T09:51:12.444Z,102631.66
2023-05-19T09:53:40.660Z,102631.53
2023-05-19T09:56:08.789Z,102629.63
2023-05-19T09:58:36.541Z,102631.28
2023-05-19T10:01:04.280Z,102633.16
2023-05-19T10:03:34.733Z,102627.22
2023-05-19T10:06:04.320Z,102618.38
2023-05-19T10:08:31.833Z,102622.78
2023-05-19T10:11:01.648Z,102630.72
2023-05-19T10:13:29.659Z,102625.34
2023-05-19T10:15:59.738Z,102618.19
2023-05-19T10:18:29.212Z,102621.66
2023-05-19T10:20:57.742Z,102616.13
2023-05-19T10:23:27.306Z,102608.84
2023-05-19T10:25:58.274Z,102599.66
2023-05-19T10:28:31.580Z,102614.25
2023-05-19T10:31:04.678Z,102608.53
2023-05-19T10:34:09.287Z,102604.63
2023-05-19T10:36:47.672Z,102597.44
2023-05-19T10:39:29.681Z,102610.78
2023-05-19T10:42:41.318Z,102604.31
2023-05-19T10:45:27.683Z,102595.28
2023-05-19T10:47:54.754Z,102589.06
2023-05-19T10:50:24.382Z,102587.25
2023-05-19T10:52:56.421Z,102589.22
2023-05-19T10:55:45.965Z,102581.31
2023-05-19T10:58:12.498Z,102585.97
2023-05-19T11:00:39.786Z,102594.16
2023-05-19T11:03:16.703Z,102564.84
2023-05-19T11:05:45.646Z,102577.44
2023-05-19T11:08:32.205Z,102587.53
2023-05-19T11:11:13.380Z,102581.25
2023-05-19T11:13:42.960Z,102584.94
2023-05-19T11:16:10.199Z,102569.09
2023-05-19T11:18:38.372Z,102575.09
2023-05-19T11:21:05.312Z,102577.56
2023-05-19T11:23:38.211Z,102569.38
2023-05-19T11:26:07.640Z,102566.41
2023-05-19T11:28:34.196Z,102558.34
2023-05-19T11:31:02.181Z,102573.97
2023-05-19T11:33:28.776Z,102566.50
2023-05-19T11:35:59.239Z,102569.66
2023-05-19T11:38:28.056Z,102566.97
2023-05-19T11:40:54.994Z,102553.81
2023-05-19T11:43:25.034Z,102568.19
2023-05-19T11:45:51.828Z,102565.50
2023-05-19T11:48:24.702Z,102568.03
2023-05-19T11:50:51.530Z,102561.56
2023-05-19T11:53:19.595Z,102570.56
2023-05-19T11:55:47.493Z,102555.91
2023-05-19T11:58:17.612Z,102553.38
2023-05-19T12:00:47.331Z,102559.91
2023-05-19T12:03:14.044Z,102548.84
2023-05-19T12:05:47.348Z,102552.75
2023-05-19T12:08:16.169Z,102555.06
2023-05-19T12:10:42.667Z,102555.06
2023-05-19T12:13:09.963Z,102547.88
2023-05-19T12:15:37.479Z,102549.78
2023-05-19T12:18:04.261Z,102547.75
2023-05-19T12:20:39.265Z,102546.88
2023-05-19T12:23:05.941Z,102539.88
2023-05-19T12:25:34.070Z,102535.44
2023-05-19T12:28:05.356Z,102537.44
2023-05-19T12:30:33.655Z,102524.13
2023-05-19T12:33:02.379Z,102533.25
2023-05-19T12:35:33.827Z,102532.91
2023-05-19T12:38:11.375Z,102521.16
2023-05-19T12:40:42.453Z,102522.47
2023-05-19T12:43:19.111Z,102517.66
2023-05-19T12:45:45.866Z,102523.59
2023-05-19T12:48:12.699Z,102516.94
2023-05-19T12:50:40.647Z,102521.09
2023-05-19T12:53:14.191Z,102525.19
2023-05-19T12:55:45.002Z,102520.63
2023-05-19T12:58:12.632Z,102516.44
2023-05-19T13:00:45.391Z,102529.44
2023-05-19T13:03:20.202Z,102508.63
2023-05-19T13:05:48.951Z,102509.00
2023-05-19T13:08:20.470Z,102506.06
2023-05-19T13:10:47.651Z,102515.69
2023-05-19T13:13:16.690Z,102509.41
2023-05-19T13:15:52.145Z,102497.66
2023-05-19T13:18:18.814Z,102504.47
2023-05-19T13:20:46.997Z,102507.91
2023-05-19T13:23:14.263Z,102503.41
2023-05-19T13:25:41.587Z,102501.69
2023-05-19T13:28:08.577Z,102493.00
2023-05-19T13:30:38.201Z,102486.34
2023-05-19T13:33:05.491Z,102498.25
2023-05-19T13:35:37.003Z,102497.84
2023-05-19T13:38:05.544Z,102485.34
2023-05-19T13:40:35.468Z,102479.38
2023-05-19T13:43:02.974Z,102488.63
2023-05-19T13:45:29.523Z,102489.66
2023-05-19T13:47:56.588Z,102495.22
2023-05-19T13:50:23.298Z,102493.41
2023-05-19T13:52:53.281Z,102480.75
2023-05-19T13:55:19.875Z,102480.75
2023-05-19T13:57:46.291Z,102467.16
2023-05-19T14:00:13.320Z,102479.00
2023-05-19T14:02:40.595Z,102475.66
2023-05-19T14:05:08.692Z,102465.97
2023-05-19T14:07:35.848Z,102467.34
2023-05-19T14:10:05.341Z,102457.53
2023-05-19T14:12:41.535Z,102464.63
2023-05-19T14:15:18.742Z,102464.72
2023-05-19T14:17:45.450Z,102460.53
2023-05-19T14:20:12.480Z,102476.84
2023-05-19T14:22:38.925Z,102463.47
2023-05-19T14:25:06.031Z,102451.97
2023-05-19T14:27:32.682Z,102454.75
2023-05-19T14:29:59.129Z,102452.16
2023-05-19T14:32:27.923Z,102456.66
2023-05-19T14:34:58.628Z,102439.59
2023-05-19T14:37:28.744Z,102441.22
2023-05-19T14:39:55.601Z,102447.13
2023-05-19T14:42:22.048Z,102449.72
2023-05-19T14:44:48.475Z,102448.84
2023-05-19T14:47:15.068Z,102446.28
2023-05-19T14:49:41.621Z,102449.84
2023-05-19T14:52:10.765Z,102445.50
2023-05-19T14:54:37.219Z,102449.22
2023-05-19T14:57:04.454Z,102446.63
2023-05-19T14:59:37.429Z,102436.97
2023-05-19T15:02:04.658Z,102441.38
2023-05-19T15:04:33.732Z,102439.53
2023-05-19T15:09:29.673Z,102441.50
2023-05-19T15:11:56.124Z,102433.63
2023-05-19T15:14:22.662Z,102433.97
2023-05-19T15:16:50.574Z,102439.53
2023-05-19T15:19:17.120Z,102428.00
2023-05-19T15:21:45.569Z,102432.53
2023-05-19T15:24:13.185Z,102442.28
2023-05-19T15:26:39.719Z,102420.84
2023-05-19T15:29:06.174Z,102419.91
2023-05-19T15:31:37.997Z,102435.22
2023-05-19T15:34:04.878Z,102429.16
2023-05-19T15:36:32.823Z,102420.34
2023-05-19T15:38:59.442Z,102423.00
2023-05-19T15:41:28.977Z,102417.59
2023-05-19T15:43:55.735Z,102425.59
2023-05-19T15:46:22.696Z,102424.91
2023-05-19T15:48:49.175Z,102420.69
2023-05-19T15:51:15.912Z,102421.78
2023-05-19T15:53:44.062Z,102410.16
2023-05-19T15:56:10.749Z,102412.81
2023-05-19T15:58:37.276Z,102412.00
2023-05-19T16:01:03.809Z,102405.19
2023-05-19T16:03:32.997Z,102400.88
2023-05-19T16:05:59.542Z,102410.69
2023-05-19T16:08:28.970Z,102409.81
2023-05-19T16:10:55.549Z,102411.59
2023-05-19T16:13:23.762Z,102399.09
2023-05-19T16:15:54.735Z,102403.63
2023-05-19T16:18:21.390Z,102384.09
2023-05-19T16:20:47.858Z,102391.91
2023-05-19T16:23:16.000Z,102389.25
2023-05-19T16:25:44.615Z,102395.53
2023-05-19T16:28:11.268Z,102387.63
2023-05-19T16:30:38.002Z,102394.06
2023-05-19T16:33:04.836Z,102390.63
2023-05-19T16:35:32.094Z,102395.09
2023-05-19T16:37:58.604Z,102389.75
2023-05-19T16:40:30.144Z,102393.34
2023-05-19T16:42:57.426Z,102390.81
2023-05-19T16:45:23.971Z,102385.69
2023-05-19T16:47:54.154Z,102388.47
2023-05-19T16:50:20.726Z,102395.81
2023-05-19T16:52:47.238Z,102396.00
2023-05-19T16:55:19.378Z,102395.28
2023-05-19T17:00:15.874Z,102383.03
2023-05-19T17:02:42.577Z,102391.91
2023-05-19T17:05:09.460Z,102388.31
2023-05-19T17:07:35.987Z,102385.66
2023-05-19T17:10:06.018Z,102390.13
2023-05-19T17:12:32.778Z,102396.31
2023-05-19T17:14:59.275Z,102398.97
2023-05-19T17:17:25.817Z,102396.31
2023-05-19T17:19:52.330Z,102396.38
2023-05-19T17:22:19.185Z,102392.97
2023-05-19T17:24:48.216Z,102386.84
2023-05-19T17:27:15.080Z,102391.47
2023-05-19T17:29:41.652Z,102398.72
2023-05-19T17:32:08.237Z,102389.03
2023-05-19T17:34:36.053Z,102370.53
2023-05-19T17:37:02.570Z,102390.00
2023-05-19T17:39:29.651Z,102397.06
2023-05-19T17:41:56.336Z,102388.22
2023-05-19T17:44:23.445Z,102389.16
2023-05-19T17:46:50.063Z,102404.28
2023-05-19T17:49:16.884Z,102393.63
2023-05-19T17:51:43.633Z,102405.22
2023-05-19T17:54:10.299Z,102409.69
2023-05-19T17:56:42.276Z,102404.38
2023-05-19T17:59:09.105Z,102407.09
2023-05-19T18:01:35.957Z,102419.59
2023-05-19T18:04:09.168Z,102411.63
2023-05-19T18:06:40.572Z,102415.22
2023-05-19T18:09:10.869Z,102413.41
2023-05-19T18:11:37.433Z,102414.34
2023-05-19T18:14:03.884Z,102411.66
2023-05-19T18:16:30.454Z,102411.66
2023-05-19T18:18:57.048Z,102417.03
2023-05-19T18:21:24.541Z,102411.72
2023-05-19T18:23:51.482Z,102418.88
2023-05-19T18:26:17.970Z,102407.34
2023-05-19T18:28:45.790Z,102414.47
2023-05-19T18:31:19.002Z,102415.34
2023-05-19T18:33:47.075Z,102417.19
2023-05-19T18:36:16.298Z,102427.84
2023-05-19T18:38:44.716Z,102422.56
2023-05-19T18:41:13.556Z,102425.22
2023-05-19T18:43:40.257Z,102421.66
2023-05-19T18:46:06.848Z,102421.69
2023-05-19T18:48:33.363Z,102422.56
2023-05-19T18:51:00.180Z,102424.31
2023-05-19T18:53:26.726Z,102425.22
2023-05-19T18:55:53.171Z,102422.56
2023-05-19T18:58:19.661Z,102433.22
2023-05-19T19:00:49.113Z,102435.91
2023-05-19T19:03:15.846Z,102430.59
2023-05-19T19:05:43.586Z,102431.47
2023-05-19T19:08:10.162Z,102426.16
2023-05-19T19:10:39.076Z,102427.97
2023-05-19T19:13:06.029Z,102427.06
2023-05-19T19:15:32.569Z,102432.44
2023-05-19T19:17:59.178Z,102438.72
2023-05-19T19:20:25.792Z,102438.72
2023-05-19T19:22:52.849Z,102444.03
2023-05-19T19:25:23.083Z,102443.16
2023-05-19T19:27:52.773Z,102445.88
2023-05-19T19:30:19.422Z,102441.44
2023-05-19T19:32:45.999Z,102448.56
2023-05-19T19:35:12.634Z,102453.03
2023-05-19T19:37:39.059Z,102464.53
2023-05-19T19:40:06.481Z,102459.25
2023-05-19T19:42:35.532Z,102469.03
2023-05-19T19:45:02.049Z,102470.81
2023-05-19T19:47:28.572Z,102476.16
2023-05-19T19:49:55.930Z,102486.81
2023-05-19T19:52:22.420Z,102485.06
2023-05-19T19:54:49.030Z,102489.50
2023-05-19T19:57:17.223Z,102498.38
2023-05-19T19:59:43.775Z,102493.06
2023-05-19T20:02:10.459Z,102490.41
2023-05-19T20:04:38.378Z,102493.06
2023-05-19T20:07:05.064Z,102496.59
2023-05-19T20:09:31.606Z,102500.16
2023-05-19T20:11:58.164Z,102503.69
2023-05-19T20:14:26.485Z,102508.13
2023-05-19T20:16:53.015Z,102507.25
2023-05-19T20:19:20.494Z,102513.38
2023-05-19T20:21:46.951Z,102509.84
2023-05-19T20:24:13.492Z,102503.63
2023-05-19T20:26:40.045Z,102516.03
2023-05-19T20:29:06.565Z,102522.22
2023-05-19T20:31:33.010Z,102521.31
2023-05-19T20:34:02.199Z,102515.97
2023-05-19T20:36:28.710Z,102520.38
2023-05-19T20:38:55.212Z,102524.78
2023-05-19T20:41:22.461Z,102523.88
2023-05-19T20:43:52.203Z,102528.31
2023-05-19T20:46:18.726Z,102530.06
2023-05-19T20:48:45.385Z,102529.19
2023-05-19T20:51:11.861Z,102537.13
2023-05-19T20:53:38.490Z,102530.91
2023-05-19T20:56:06.822Z,102534.41
2023-05-19T20:58:33.361Z,102535.28
2023-05-19T21:00:59.937Z,102537.03
2023-05-19T21:03:27.231Z,102528.16
2023-05-19T21:05:54.890Z,102527.25
2023-05-19T21:08:21.475Z,102515.66
2023-05-19T21:10:48.387Z,102512.06
2023-05-19T21:13:15.028Z,102532.53
2023-05-19T21:15:47.006Z,102536.91
2023-05-19T21:18:13.436Z,102543.03
2023-05-19T21:20:39.959Z,102546.56
2023-05-19T21:23:06.471Z,102535.88
2023-05-19T21:25:32.980Z,102544.69
2023-05-19T21:27:59.625Z,102537.56
2023-05-19T21:30:26.171Z,102534.00
2023-05-19T21:32:52.745Z,102541.88
2023-05-19T21:35:19.331Z,102541.91
2023-05-19T21:37:46.925Z,102546.28
2023-05-19T21:40:13.428Z,102555.03
2023-05-19T21:42:39.870Z,102553.22
2023-05-19T21:45:06.938Z,102557.63
2023-05-19T21:47:33.437Z,102551.41
2023-05-19T21:49:59.868Z,102562.03
2023-05-19T21:52:26.483Z,102562.88
2023-05-19T21:54:55.473Z,102577.00
2023-05-19T21:57:21.972Z,102572.53
2023-05-19T21:59:48.567Z,102572.53
2023-05-19T22:02:15.622Z,102567.22
2023-05-19T22:04:42.867Z,102571.59
2023-05-19T22:07:09.329Z,102566.28
2023-05-19T22:09:35.928Z,102563.56
2023-05-19T22:12:02.436Z,102563.47
2023-05-19T22:14:29.014Z,102561.66
2023-05-19T22:16:55.614Z,102556.31
2023-05-19T22:19:22.136Z,102558.00
2023-05-19T22:21:50.407Z,102556.19
2023-05-19T22:24:23.221Z,102563.25
2023-05-19T22:26:49.736Z,102558.84
2023-05-19T22:29:18.438Z,102563.28
2023-05-19T22:31:47.457Z,102556.16
2023-05-19T22:34:16.661Z,102557.09
2023-05-19T22:36:45.908Z,102561.50
2023-05-19T22:39:15.289Z,102560.56
2023-05-19T22:41:42.024Z,102557.88
2023-05-19T22:44:10.368Z,102553.38
2023-05-19T22:46:37.131Z,102550.75
2023-05-19T22:49:03.653Z,102549.81
2023-05-19T22:51:30.198Z,102561.25
2023-05-19T22:53:56.688Z,102564.75
2023-05-19T22:56:23.230Z,102560.28
2023-05-19T22:58:49.769Z,102568.22
2023-05-19T23:01:17.074Z,102553.19
2023-05-19T23:03:46.229Z,102562.84
2023-05-19T23:06:12.782Z,102551.31
2023-05-19T23:08:39.549Z,102534.34
2023-05-19T23:11:05.958Z,102556.53
2023-05-19T23:13:32.454Z,102566.16
2023-05-19T23:15:58.943Z,102564.28
2023-05-19T23:18:25.485Z,102558.06
2023-05-19T23:20:52.865Z,102554.50
2023-05-19T23:23:19.484Z,102554.47
2023-05-19T23:25:46.288Z,102545.47
2023-05-19T23:28:12.742Z,102549.13
2023-05-19T23:30:39.416Z,102568.47
2023-05-19T23:33:07.213Z,102561.34
2023-05-19T23:35:34.100Z,102560.47
2023-05-19T23:38:00.989Z,102546.25
2023-05-19T23:40:27.516Z,102571.03
2023-05-19T23:42:54.060Z,102569.19
2023-05-19T23:45:20.605Z,102563.75
2023-05-19T23:47:47.018Z,102566.34
2023-05-19T23:50:13.566Z,102561.91
2023-05-19T23:52:40.133Z,102560.00
2023-05-19T23:55:07.422Z,102563.47
2023-05-19T23:57:33.892Z,102551.09
